G4RHR Felixstowe UK current weather conditions

sailwx.info

Wind from 196 at 4 knots gusting 7

Air temperature 15.0° C
Dewpoint 13.9° C

Last reported at 2019-Sep-23 02:04 UTC.
Time now 2019-Sep-23 02:57 UTC

Location: N 52°01' E 001°19'.
View on Google Maps.

See reports from other nearby stations

  
Tides and Currents Weather Stations Pressure Air Temp Water Temp Dewpoint Dewpoint Depression Visibility Wind Speed Wind Dir Waves Ship Positions
date/time (UTC)wind fromknots sea level pressurealtimeterstation pressurevisibilityair tempwater tempwave heightnotes
2019-Sep-23 02:22 199 5 gusting 9 15.0
2019-Sep-23 02:13 196 5 gusting 9 15.0
2019-Sep-23 02:04 196 4 gusting 7 15.0
2019-Sep-23 01:55 196 4 gusting 6 15.6
2019-Sep-23 01:46 195 3 gusting 6 15.6
2019-Sep-23 01:37 196 4 gusting 6 15.0
2019-Sep-23 01:28 189 1 gusting 6 15.0
2019-Sep-23 01:19 188 0 gusting 2 15.0
2019-Sep-23 01:10 188 1 gusting 3 15.0
2019-Sep-23 01:01 192 2 gusting 4 15.0
2019-Sep-23 00:52 193 2 gusting 5 15.6
2019-Sep-23 00:43 194 2 gusting 4 15.6
2019-Sep-23 00:34 185 2 gusting 4 15.6
2019-Sep-23 00:25 189 2 gusting 5 15.6
2019-Sep-23 00:16 190 2 gusting 5 15.6
2019-Sep-23 00:07 189 3 gusting 5 15.6
2019-Sep-22 23:58 194 2 gusting 4 15.6
2019-Sep-22 23:49 190 2 gusting 4 15.6
2019-Sep-22 23:40 188 2 gusting 4 15.6
2019-Sep-22 23:31 188 4 gusting 6 15.6
2019-Sep-22 23:22 189 3 gusting 6 15.6
2019-Sep-22 23:13 188 1 gusting 4 15.6
2019-Sep-22 23:04 191 1 gusting 3 15.6
2019-Sep-22 22:55 192 2 gusting 5 15.6
2019-Sep-22 22:46 189 4 gusting 6 15.6
2019-Sep-22 22:37 191 5 gusting 7 15.6
2019-Sep-22 22:28 190 5 gusting 9 15.6
2019-Sep-22 22:19 186 6 gusting 9 15.6
2019-Sep-22 22:10 186 5 gusting 8 15.6
2019-Sep-22 22:01 186 6 gusting 8 15.6
2019-Sep-22 21:52 190 6 gusting 9 15.6
2019-Sep-22 21:43 191 5 gusting 8 15.6
2019-Sep-22 21:34 195 5 gusting 8 15.6
2019-Sep-22 21:25 195 5 gusting 7 15.6
2019-Sep-22 21:16 197 5 gusting 8 15.6
2019-Sep-22 21:07 194 5 gusting 9 15.6
2019-Sep-22 20:58 192 5 gusting 9 15.6
2019-Sep-22 20:49 193 5 gusting 9 15.6
2019-Sep-22 20:40 196 5 gusting 9 15.6
2019-Sep-22 20:31 198 5 gusting 6 15.6
2019-Sep-22 20:22 201 5 gusting 7 15.6
2019-Sep-22 20:13 201 6 gusting 9 15.6
2019-Sep-22 20:04 198 6 gusting 8 15.6
2019-Sep-22 19:55 201 5 gusting 8 15.6
2019-Sep-22 19:46 200 4 gusting 6 15.6
2019-Sep-22 19:37 201 5 gusting 7 15.6
2019-Sep-22 19:28 197 5 gusting 8 15.6
2019-Sep-22 19:19 200 5 gusting 8 16.1
2019-Sep-22 19:10 196 5 gusting 8 16.1
2019-Sep-22 19:01 196 4 gusting 6 16.1
2019-Sep-22 18:52 189 2 gusting 5 15.6
2019-Sep-22 18:43 190 3 gusting 5 15.6
2019-Sep-22 18:34 197 3 gusting 6 15.6
2019-Sep-22 18:25 200 1 gusting 3 15.6
2019-Sep-22 18:16 195 2 gusting 4 15.6
2019-Sep-22 18:07 192 3 gusting 6 15.6
2019-Sep-22 17:58 195 4 gusting 6 16.1
2019-Sep-22 17:49 198 5 gusting 8 16.1
2019-Sep-22 17:40 203 6 gusting 8 16.1
2019-Sep-22 17:31 202 4 gusting 8 16.1
2019-Sep-22 17:22 205 5 gusting 8 16.1
2019-Sep-22 17:13 204 4 gusting 8 16.1
2019-Sep-22 17:04 204 6 gusting 10 16.7
2019-Sep-22 16:55 204 5 gusting 8 16.7
2019-Sep-22 16:46 202 3 gusting 6 16.7
2019-Sep-22 16:37 203 2 gusting 6 16.7
2019-Sep-22 16:28 208 2 gusting 5 16.7
2019-Sep-22 16:19 203 2 gusting 5 16.7
2019-Sep-22 16:10 212 3 gusting 7 16.7
2019-Sep-22 16:01 216 3 gusting 6 16.7
2019-Sep-22 15:52 212 3 gusting 7 16.7
2019-Sep-22 15:43 212 3 gusting 8 16.7
2019-Sep-22 15:34 224 4 gusting 10 16.7
2019-Sep-22 15:25 240 5 gusting 12 16.7
2019-Sep-22 15:16 215 7 gusting 15 17.2
2019-Sep-22 15:07 208 7 gusting 18 18.9
2019-Sep-22 14:58 190 8 gusting 14 20.0
2019-Sep-22 14:49 189 7 gusting 14 21.1
2019-Sep-22 14:40 188 6 gusting 11 21.1
2019-Sep-22 14:31 188 7 gusting 13 21.1
2019-Sep-22 14:22 188 7 gusting 11 21.1
2019-Sep-22 14:13 189 7 gusting 13 21.7
2019-Sep-22 14:04 194 8 gusting 13 22.2
2019-Sep-22 13:55 185 6 gusting 11 23.3
2019-Sep-22 13:46 173 6 gusting 12 22.8
2019-Sep-22 13:37 173 6 gusting 12 22.2
2019-Sep-22 13:28 189 6 gusting 12 22.2
2019-Sep-22 13:19 186 6 gusting 11 22.2
2019-Sep-22 13:10 189 6 gusting 11 22.2
2019-Sep-22 13:01 178 6 gusting 11 22.8
2019-Sep-22 12:52 170 6 gusting 11 23.3
2019-Sep-22 12:43 176 6 gusting 10 23.3
2019-Sep-22 12:34 170 5 gusting 10 23.3
2019-Sep-22 12:25 160 3 gusting 8 22.8
2019-Sep-22 12:16 159 4 gusting 9 22.8
2019-Sep-22 12:07 163 3 gusting 7 22.2
2019-Sep-22 11:58 183 3 gusting 7 21.1
2019-Sep-22 11:49 185 4 gusting 9 21.1
2019-Sep-22 11:40 192 5 gusting 9 21.7
2019-Sep-22 11:31 202 6 gusting 11 21.1
2019-Sep-22 11:22 193 6 gusting 11 22.2
2019-Sep-22 11:13 180 5 gusting 9 22.2
2019-Sep-22 11:04 175 4 gusting 9 21.7
2019-Sep-22 10:55 171 4 gusting 10 21.1
2019-Sep-22 10:46 172 4 gusting 8 21.7
2019-Sep-22 10:37 182 6 gusting 9 21.7
2019-Sep-22 10:28 188 6 gusting 9 21.1
2019-Sep-22 10:19 165 4 gusting 9 21.1
2019-Sep-22 10:10 156 3 gusting 8 20.6
2019-Sep-22 10:01 156 2 gusting 6 20.0
2019-Sep-22 09:52 164 2 gusting 6 20.6
2019-Sep-22 09:43 162 3 gusting 6 20.6
2019-Sep-22 09:34 165 3 gusting 6 20.0
2019-Sep-22 09:25 157 3 gusting 8 20.0
2019-Sep-22 09:16 157 3 gusting 6 20.0
2019-Sep-22 09:07 162 2 gusting 6 20.0
2019-Sep-22 08:58 157 3 gusting 6 20.0
2019-Sep-22 08:49 162 3 gusting 8 19.4
2019-Sep-22 08:40 158 3 gusting 7 19.4
2019-Sep-22 08:31 158 2 gusting 6 20.0
2019-Sep-22 08:22 159 1 gusting 7 20.0
2019-Sep-22 08:13 158 2 gusting 7 20.0
2019-Sep-22 08:04 157 3 gusting 6 19.4
2019-Sep-22 07:55 156 3 gusting 7 18.9
2019-Sep-22 07:46 155 3 gusting 8 18.9
2019-Sep-22 07:37 156 2 gusting 6 18.9
2019-Sep-22 07:28 158 3 gusting 6 18.3
2019-Sep-22 07:19 158 3 gusting 8 18.3
2019-Sep-22 07:10 157 3 gusting 6 18.3
2019-Sep-22 07:01 156 2 gusting 6 18.3
2019-Sep-22 06:52 149 1 gusting 5 17.8
2019-Sep-22 06:43 159 1 gusting 5 17.2
2019-Sep-22 06:34 161 1 gusting 5 17.2
2019-Sep-22 06:25 155 1 gusting 6 16.7
2019-Sep-22 06:16 150 0 gusting 4 16.7
2019-Sep-22 06:07 162 1 gusting 4 16.7
2019-Sep-22 05:58 162 0 gusting 4 16.7
2019-Sep-22 05:49 159 1 gusting 5 16.7
2019-Sep-22 05:40 159 0 gusting 5 16.7
2019-Sep-22 05:31 157 0 gusting 3 16.7
2019-Sep-22 05:22 135 0 gusting 3 16.7
2019-Sep-22 05:13 119 0 gusting 4 16.7
2019-Sep-22 05:04 045 0 gusting 4 16.7
2019-Sep-22 04:55 167 0 gusting 4 16.7
2019-Sep-22 04:46 155 0 gusting 4 16.7
2019-Sep-22 04:37 154 1 gusting 7 17.2
2019-Sep-22 04:28 153 0 gusting 4 17.2
2019-Sep-22 04:19 150 0 gusting 4 17.2
2019-Sep-22 04:10 157 0 gusting 2 17.2
2019-Sep-22 04:01 158 1 gusting 4 17.8
2019-Sep-22 03:52 152 2 gusting 6 17.8
2019-Sep-22 03:43 158 2 gusting 7 17.8
2019-Sep-22 03:34 160 2 gusting 7 17.8
2019-Sep-22 03:25 157 2 gusting 8 17.8
2019-Sep-22 03:16 156 3 gusting 9 17.8
2019-Sep-22 03:07 155 2 gusting 9 17.8
2019-Sep-22 02:58 161 2 gusting 6 17.8
2019-Sep-22 02:49 155 3 gusting 9 17.8
2019-Sep-22 02:40 158 3 gusting 7 18.3
2019-Sep-22 02:31 157 4 gusting 10 18.3
2019-Sep-22 02:22 158 3 gusting 9 17.8
2019-Sep-22 02:13 156 3 gusting 8 18.3
2019-Sep-22 02:04 159 3 gusting 8 17.8
2019-Sep-22 01:55 158 3 gusting 8 17.8
2019-Sep-22 01:46 158 2 gusting 7 17.8
2019-Sep-22 01:37 158 1 gusting 6 17.8
2019-Sep-22 01:28 157 1 gusting 6 17.8
2019-Sep-22 01:19 155 1 gusting 6 17.2
2019-Sep-22 01:10 150 1 gusting 5 17.2
2019-Sep-22 01:01 141 0 gusting 4 17.2
2019-Sep-22 00:52 054 0 gusting 4 17.2
2019-Sep-22 00:43 147 0 gusting 4 17.2
2019-Sep-22 00:34 158 17.2
2019-Sep-22 00:25 153 0 gusting 4 17.2
2019-Sep-22 00:16 158 0 gusting 4 17.2
2019-Sep-22 00:07 153 0 gusting 4 17.2
2019-Sep-21 23:58 156 0 gusting 4 17.2
2019-Sep-21 23:49 146 17.2
2019-Sep-21 23:40 118 17.2
2019-Sep-21 23:31 163 16.7
2019-Sep-21 23:22 16.7
2019-Sep-21 23:13 16.7
2019-Sep-21 23:04 097 16.7
2019-Sep-21 22:55 097 16.7
2019-Sep-21 22:46 093 16.7
2019-Sep-21 22:37 072 16.7
2019-Sep-21 22:28 072 0 gusting 2 16.7
2019-Sep-21 22:19 069 0 gusting 3 16.7
2019-Sep-21 22:10 064 0 gusting 3 16.7
2019-Sep-21 22:01 073 0 gusting 3 16.7
2019-Sep-21 21:52 074 0 gusting 3 16.7
2019-Sep-21 21:43 070 16.1
2019-Sep-21 21:34 076 16.1
2019-Sep-21 21:25 075 16.1
2019-Sep-21 21:16 074 16.1
2019-Sep-21 21:07 074 16.1
2019-Sep-21 20:58 072 0 gusting 3 16.1
2019-Sep-21 20:49 069 1 gusting 3 16.1
2019-Sep-21 20:40 060 0 gusting 3 15.6
2019-Sep-21 20:31 059 15.6
2019-Sep-21 20:22 15.6
2019-Sep-21 20:13 15.6
2019-Sep-21 20:04 059 15.6
2019-Sep-21 19:55 059 0 gusting 1 15.6
2019-Sep-21 19:46 059 0 gusting 2 15.6
2019-Sep-21 19:37 059 15.6
2019-Sep-21 19:28 059 0 gusting 2 15.6
2019-Sep-21 19:19 059 0 gusting 2 15.6
2019-Sep-21 19:10 059 0 gusting 2 15.6
2019-Sep-21 19:01 059 15.6
2019-Sep-21 18:52 059 16.1
2019-Sep-21 18:43 059 0 gusting 2 16.1
2019-Sep-21 18:34 062 0 gusting 3 16.1
2019-Sep-21 18:25 073 0 gusting 2 16.7
2019-Sep-21 18:16 074 16.7
2019-Sep-21 18:07 072 0 gusting 3 17.2
2019-Sep-21 17:58 069 1 gusting 5 17.2
2019-Sep-21 17:49 074 1 gusting 5 17.8
2019-Sep-21 17:40 063 1 gusting 3 18.3
2019-Sep-21 17:31 072 1 gusting 3 18.9
2019-Sep-21 17:22 066 1 gusting 4 18.9
2019-Sep-21 17:13 069 2 gusting 5 18.9
2019-Sep-21 17:04 072 2 gusting 7 19.4
2019-Sep-21 16:55 075 2 gusting 7 19.4
2019-Sep-21 16:46 071 3 gusting 6 19.4
2019-Sep-21 16:37 072 2 gusting 6 19.4
2019-Sep-21 16:28 076 2 gusting 7 19.4
2019-Sep-21 16:19 075 3 gusting 7 19.4
2019-Sep-21 16:10 074 3 gusting 9 19.4
2019-Sep-21 16:01 079 3 gusting 7 19.4
2019-Sep-21 15:52 076 2 gusting 9 18.9
2019-Sep-21 15:43 075 1 gusting 7 18.9
2019-Sep-21 15:34 076 2 gusting 10 18.9
2019-Sep-21 15:25 081 2 gusting 8 18.9
2019-Sep-21 15:16 076 2 gusting 8 18.9
2019-Sep-21 15:07 079 3 gusting 10 18.9
2019-Sep-21 14:58 096 2 gusting 9 18.9
2019-Sep-21 14:49 095 2 gusting 8 18.9
2019-Sep-21 14:40 076 2 gusting 8 19.4
2019-Sep-21 14:31 105 1 gusting 9 19.4
2019-Sep-21 14:22 101 1 gusting 6 19.4
2019-Sep-21 14:13 097 1 gusting 6 19.4
2019-Sep-21 14:04 109 3 gusting 10 20.0
2019-Sep-21 13:55 126 2 gusting 10 20.0
2019-Sep-21 13:46 087 3 gusting 9 20.0
2019-Sep-21 13:37 115 3 gusting 12 20.6
2019-Sep-21 13:28 076 3 gusting 12 20.6
2019-Sep-21 13:19 095 3 gusting 9 21.1
2019-Sep-21 13:10 100 2 gusting 9 21.1
2019-Sep-21 13:01 080 3 gusting 9 20.6
2019-Sep-21 12:52 074 3 gusting 8 20.6
2019-Sep-21 12:43 093 2 gusting 7 20.6
2019-Sep-21 12:34 086 2 gusting 7 20.6
2019-Sep-21 12:25 084 3 gusting 9 20.6
2019-Sep-21 12:16 109 2 gusting 7 20.6
2019-Sep-21 12:07 087 2 gusting 8 20.6
2019-Sep-21 11:58 076 3 gusting 10 20.6
2019-Sep-21 11:49 085 2 gusting 10 20.6
2019-Sep-21 11:40 100 2 gusting 9 20.6
2019-Sep-21 11:31 108 1 gusting 5 20.6
2019-Sep-21 11:22 081 1 gusting 6 20.6
2019-Sep-21 11:13 074 2 gusting 9 20.0
2019-Sep-21 11:04 145 3 gusting 12 20.0
2019-Sep-21 10:55 122 2 gusting 6 20.0
2019-Sep-21 10:46 112 3 gusting 9 20.0
2019-Sep-21 10:37 109 2 gusting 9 19.4
2019-Sep-21 10:28 088 3 gusting 10 19.4
2019-Sep-21 10:19 075 3 gusting 10 19.4
2019-Sep-21 10:10 105 2 gusting 9 19.4
2019-Sep-21 10:01 117 2 gusting 8 19.4
2019-Sep-21 09:52 086 2 gusting 8 18.9
2019-Sep-21 09:43 089 3 gusting 10 18.9
2019-Sep-21 09:34 081 2 gusting 10 18.9
2019-Sep-21 09:25 073 2 gusting 9 18.9
2019-Sep-21 09:16 095 3 gusting 10 18.9
2019-Sep-21 09:07 096 2 gusting 10 18.9
2019-Sep-21 08:58 081 2 gusting 10 18.3
2019-Sep-21 08:49 124 2 gusting 9 18.3
2019-Sep-21 08:40 114 2 gusting 9 17.8
2019-Sep-21 08:22 146 2 gusting 9 17.8
2019-Sep-21 08:13 138 2 gusting 7 17.8
2019-Sep-21 08:04 138 2 gusting 8 17.2
2019-Sep-21 07:55 146 4 gusting 11 16.7
2019-Sep-21 07:46 150 2 gusting 9 16.7
2019-Sep-21 07:37 151 1 gusting 7 16.7
2019-Sep-21 07:28 152 1 gusting 7 16.1
2019-Sep-21 07:19 141 1 gusting 6 16.1
2019-Sep-21 07:10 123 1 gusting 6 15.6
2019-Sep-21 07:01 143 1 gusting 8 15.6
2019-Sep-21 06:52 155 1 gusting 8 15.6
2019-Sep-21 06:43 145 1 gusting 6 15.0
2019-Sep-21 06:34 146 1 gusting 10 15.0
2019-Sep-21 06:25 154 1 gusting 5 15.0
2019-Sep-21 06:16 130 1 gusting 6 15.0
2019-Sep-21 06:07 132 0 gusting 3 14.4
2019-Sep-21 05:58 099 0 gusting 5 14.4
2019-Sep-21 05:49 155 0 gusting 6 14.4
2019-Sep-21 05:40 119 0 gusting 6 14.4
2019-Sep-21 05:31 155 0 gusting 3 14.4
2019-Sep-21 05:22 130 1 gusting 4 14.4
2019-Sep-21 05:13 094 0 gusting 5 14.4
2019-Sep-21 05:04 079 0 gusting 5 14.4
2019-Sep-21 04:55 159 0 gusting 3 14.4
2019-Sep-21 04:46 096 0 gusting 4 14.4
2019-Sep-21 04:37 136 0 gusting 4 14.4
2019-Sep-21 04:28 100 0 gusting 4 14.4
2019-Sep-21 04:19 084 0 gusting 6 14.4
2019-Sep-21 04:10 118 0 gusting 3 14.4
2019-Sep-21 04:01 083 0 gusting 5 14.4
2019-Sep-21 03:52 142 0 gusting 3 14.4
2019-Sep-21 03:43 093 14.4
2019-Sep-21 03:34 087 0 gusting 4 14.4
2019-Sep-21 03:25 023 0 gusting 2 14.4
2019-Sep-21 03:16 102 0 gusting 4 14.4
2019-Sep-21 03:07 083 0 gusting 2 15.0
2019-Sep-21 02:58 029 0 gusting 2 15.0
2019-Sep-21 02:49 123 0 gusting 9 15.0
2019-Sep-21 02:40 142 0 gusting 4 15.0
2019-Sep-21 02:31 097 0 gusting 6 15.0
2019-Sep-21 02:22 128 0 gusting 5 15.0
2019-Sep-21 02:13 105 0 gusting 6 15.0
2019-Sep-21 02:04 098 1 gusting 6 15.0